Time;durP1;ratioP1;P1;durP2;ratioP2;P2;SDS_P1;SDS_P2;PMS_P1;PMS_P2;Temp;Humidity;BMP_temperature;BMP_pressure;BME280_temperature;BME280_humidity;BME280_pressure;Samples;Min_cycle;Max_cycle;Signal;HPM_P1;HPM_P2
2023/04/18 00:02:42;;;;;;;15.83;12.60;;;;;;;13.99;53.09;99194.38;7006163;28;20328;-81
2023/04/18 00:06:05;;;;;;;17.20;12.47;;;;;;;14.18;52.77;99187.19;7007954;28;20212;-81
2023/04/18 00:09:27;;;;;;;14.47;11.87;;;;;;;14.27;52.03;99172.34;7007352;28;20210;-81
2023/04/18 00:12:48;;;;;;;16.50;12.90;;;;;;;14.23;52.40;99182.78;6987806;28;20285;-81
2023/04/18 00:16:12;;;;;;;12.63;11.27;;;;;;;13.80;53.81;99165.50;6980170;28;20683;-82
2023/04/18 00:19:33;;;;;;;14.57;12.03;;;;;;;13.83;53.45;99154.25;6980300;28;20227;-82
2023/04/18 00:22:55;;;;;;;14.07;12.27;;;;;;;13.69;54.44;99174.31;6979450;28;20313;-81
2023/04/18 00:26:16;;;;;;;15.73;12.97;;;;;;;13.73;54.79;99166.59;6980979;28;20266;-81
2023/04/18 00:29:39;;;;;;;14.63;12.67;;;;;;;13.75;54.49;99164.50;6981335;28;20289;-81
2023/04/18 00:33:03;;;;;;;15.73;13.70;;;;;;;13.64;54.16;99135.38;6987089;28;20234;-81
2023/04/18 00:36:25;;;;;;;19.27;12.30;;;;;;;13.55;54.89;99155.63;6982971;28;20210;-80
2023/04/18 00:39:47;;;;;;;17.80;12.43;;;;;;;13.78;54.56;99147.78;6984434;28;20222;-81
2023/04/18 00:43:08;;;;;;;15.43;13.07;;;;;;;13.91;54.11;99167.53;7001860;28;20284;-81
2023/04/18 00:46:30;;;;;;;15.90;12.63;;;;;;;13.67;54.55;99160.16;7015235;28;20244;-81
2023/04/18 00:49:53;;;;;;;14.47;12.07;;;;;;;13.59;53.97;99084.56;6993278;28;20206;-81
2023/04/18 00:53:15;;;;;;;15.77;12.80;;;;;;;14.16;52.74;99156.75;7009170;28;20233;-81
2023/04/18 00:56:37;;;;;;;15.53;13.23;;;;;;;13.97;52.77;99155.81;7012494;28;20273;-82
2023/04/18 00:59:59;;;;;;;12.93;11.57;;;;;;;13.81;53.27;99150.91;7014742;28;20283;-82
2023/04/18 01:03:21;;;;;;;15.73;12.07;;;;;;;13.44;53.90;99146.31;6995536;28;20365;-82
2023/04/18 01:06:44;;;;;;;14.13;12.10;;;;;;;13.43;54.66;99141.94;6997563;28;20282;-82
2023/04/18 01:10:07;;;;;;;12.47;10.97;;;;;;;13.33;54.68;99140.75;6998357;28;20600;-82
2023/04/18 01:13:28;;;;;;;13.60;11.50;;;;;;;13.36;54.49;99126.75;7006641;28;20358;-81
2023/04/18 01:16:50;;;;;;;13.73;12.33;;;;;;;13.49;54.63;99138.38;7006494;28;20289;-82
2023/04/18 01:20:12;;;;;;;14.70;11.30;;;;;;;13.58;54.18;99134.34;7006141;28;20316;-81
2023/04/18 01:23:35;;;;;;;13.63;11.40;;;;;;;13.12;54.66;99130.19;7005350;28;20289;-81
2023/04/18 01:26:58;;;;;;;14.23;11.20;;;;;;;13.07;55.14;99133.53;6995986;28;20223;-80
2023/04/18 01:30:21;;;;;;;13.77;11.53;;;;;;;13.45;54.44;99117.34;7006229;28;20267;-81
2023/04/18 01:33:42;;;;;;;14.73;11.50;;;;;;;13.49;54.66;99123.97;7005208;28;20229;-81
2023/04/18 01:37:04;;;;;;;12.87;11.30;;;;;;;13.46;54.39;99121.72;7006332;28;20214;-81
2023/04/18 01:40:26;;;;;;;13.63;12.07;;;;;;;13.50;54.51;99121.06;7006182;28;20274;-81
2023/04/18 01:43:48;;;;;;;15.00;11.57;;;;;;;13.79;53.57;99108.81;7004804;28;20285;-80
2023/04/18 01:47:10;;;;;;;14.33;11.93;;;;;;;13.67;54.31;99107.84;6985026;28;20339;-81
2023/04/18 01:50:32;;;;;;;13.97;11.90;;;;;;;13.46;54.96;99110.88;6987932;28;20683;-80
2023/04/18 01:53:53;;;;;;;14.20;11.57;;;;;;;13.28;55.78;99110.75;7005506;28;20757;-81
2023/04/18 01:57:15;;;;;;;15.63;12.93;;;;;;;13.16;55.88;99113.28;7005775;28;20300;-81
2023/04/18 02:00:37;;;;;;;13.03;11.37;;;;;;;12.71;57.00;99102.56;7005649;28;20638;-81
2023/04/18 02:03:59;;;;;;;14.37;12.80;;;;;;;12.83;56.90;99109.00;7006504;28;20836;-80
2023/04/18 02:07:21;;;;;;;14.87;11.57;;;;;;;13.19;56.16;99088.50;7001639;28;20205;-81
2023/04/18 02:10:42;;;;;;;13.77;11.93;;;;;;;12.95;56.71;99093.75;7006528;28;20300;-81
2023/04/18 02:14:04;;;;;;;13.43;10.90;;;;;;;12.93;56.87;99093.97;6997877;28;20253;-81
2023/04/18 02:17:29;;;;;;;13.07;11.03;;;;;;;12.60;57.38;99087.81;7004639;28;20206;-81
2023/04/18 02:20:51;;;;;;;12.00;10.47;;;;;;;13.06;56.68;99112.94;6976283;28;20223;-81
2023/04/18 02:24:12;;;;;;;13.17;11.80;;;;;;;13.23;55.51;99099.72;6977191;28;20222;-81
2023/04/18 02:27:34;;;;;;;13.33;11.07;;;;;;;13.27;55.20;99095.56;6976026;28;20294;-81
2023/04/18 02:30:55;;;;;;;12.20;10.50;;;;;;;13.06;55.67;99085.84;6977930;28;20356;-82
2023/04/18 02:34:18;;;;;;;13.47;11.47;;;;;;;13.17;55.70;99101.41;6975875;28;20313;-81
2023/04/18 02:37:40;;;;;;;12.40;10.63;;;;;;;13.36;54.64;99100.50;6976114;28;20255;-81
2023/04/18 02:41:01;;;;;;;13.07;10.77;;;;;;;13.07;55.79;99103.75;6976051;28;20286;-81
2023/04/18 02:44:23;;;;;;;12.13;10.83;;;;;;;13.40;54.92;99093.59;6987274;28;20423;-80
2023/04/18 02:47:44;;;;;;;13.40;11.67;;;;;;;13.34;54.50;99104.47;7003862;28;20206;-81
2023/04/18 02:51:08;;;;;;;14.10;11.00;;;;;;;13.18;55.73;99107.66;7004598;28;20201;-82
2023/04/18 02:54:30;;;;;;;12.33;10.20;;;;;;;12.68;55.91;99090.28;7003301;28;20221;-81
2023/04/18 02:57:51;;;;;;;14.27;11.20;;;;;;;13.06;55.17;99076.91;7004005;28;20210;-81
2023/04/18 03:01:15;;;;;;;12.20;10.23;;;;;;;13.31;54.88;99094.91;7017857;28;20252;-82
2023/04/18 03:04:37;;;;;;;15.33;10.57;;;;;;;13.38;54.58;99093.00;7020180;28;20241;-82
2023/04/18 03:08:00;;;;;;;12.97;10.87;;;;;;;13.25;54.06;99035.34;7019781;28;20217;-81
2023/04/18 03:11:22;;;;;;;12.93;11.00;;;;;;;13.26;54.90;99089.31;7013463;28;20649;-81
2023/04/18 03:14:43;;;;;;;14.10;11.03;;;;;;;13.51;54.87;99101.03;7006985;28;20301;-81
2023/04/18 03:18:05;;;;;;;13.03;11.20;;;;;;;13.40;54.77;99093.59;7007521;28;20220;-81
2023/04/18 03:21:27;;;;;;;13.33;11.47;;;;;;;13.38;55.50;99100.28;6998129;28;20263;-80
2023/04/18 03:24:50;;;;;;;14.00;11.80;;;;;;;13.27;55.39;99099.09;6977012;28;20239;-81
2023/04/18 03:28:11;;;;;;;12.33;11.00;;;;;;;13.47;55.26;99101.72;6992262;28;20209;-80
2023/04/18 03:31:33;;;;;;;12.67;11.40;;;;;;;13.32;55.17;99098.44;7004070;28;20611;-80
2023/04/18 03:34:54;;;;;;;15.27;10.77;;;;;;;13.37;54.24;99094.03;7005087;28;20217;-80
2023/04/18 03:38:16;;;;;;;16.37;11.73;;;;;;;13.32;55.03;99093.00;6986658;28;20243;-80
2023/04/18 03:41:39;;;;;;;12.40;11.10;;;;;;;13.35;55.47;99098.00;6974932;28;20316;-80
2023/04/18 03:45:01;;;;;;;13.23;11.33;;;;;;;13.42;55.65;99109.66;6987242;28;20975;-81
2023/04/18 03:48:22;;;;;;;13.47;11.63;;;;;;;12.96;55.03;99098.16;7008772;28;20654;-80
2023/04/18 03:51:46;;;;;;;12.20;10.90;;;;;;;13.07;55.05;99086.66;7008239;28;20241;-81
2023/04/18 03:55:08;;;;;;;12.37;10.90;;;;;;;12.88;55.16;99109.19;7005442;28;20232;-80
2023/04/18 03:58:31;;;;;;;14.33;10.80;;;;;;;13.37;54.10;99104.03;7002179;28;20296;-81
2023/04/18 04:01:53;;;;;;;12.93;11.30;;;;;;;12.55;56.03;99114.66;6974527;28;20444;-80
2023/04/18 04:05:14;;;;;;;13.23;10.90;;;;;;;13.26;54.78;99110.13;6972250;28;20295;-80
2023/04/18 04:08:36;;;;;;;15.27;11.00;;;;;;;13.31;54.74;99108.44;6973456;28;20241;-80
2023/04/18 04:11:57;;;;;;;14.30;11.47;;;;;;;13.27;54.79;99111.81;6973292;28;20205;-81
2023/04/18 04:15:20;;;;;;;14.87;10.77;;;;;;;12.79;55.05;99114.00;6975227;28;20328;-81
2023/04/18 04:18:42;;;;;;;17.40;11.33;;;;;;;12.79;55.22;99097.75;6981184;28;20297;-80
2023/04/18 04:22:03;;;;;;;11.53;10.30;;;;;;;12.99;55.04;99109.38;6981173;28;20229;-80
2023/04/18 04:25:27;;;;;;;14.87;11.37;;;;;;;13.44;53.67;99100.25;6981575;28;20660;-81
2023/04/18 04:28:50;;;;;;;13.40;10.97;;;;;;;13.43;52.50;99086.91;6984878;28;20202;-80
2023/04/18 04:32:16;;;;;;;12.33;10.97;;;;;;;13.31;53.35;99100.31;6986370;28;20212;-84
2023/04/18 04:35:38;;;;;;;12.83;11.27;;;;;;;13.69;52.30;99119.31;7004167;28;20203;-80
2023/04/18 04:39:02;;;;;;;12.73;10.77;;;;;;;13.39;52.90;99112.78;7005246;28;20316;-81
2023/04/18 04:42:27;;;;;;;12.93;11.53;;;;;;;13.54;53.58;99118.75;6990571;28;20223;-81
2023/04/18 04:45:50;;;;;;;14.00;11.37;;;;;;;13.18;54.44;99107.66;6988670;28;20212;-81
2023/04/18 04:49:13;;;;;;;12.57;11.27;;;;;;;13.49;52.85;99110.44;7006686;28;20225;-81
2023/04/18 04:52:35;;;;;;;13.60;10.20;;;;;;;13.89;52.05;99114.59;7011709;28;20216;-81
2023/04/18 04:55:57;;;;;;;13.47;10.40;;;;;;;13.76;52.14;99103.84;7017156;28;20207;-81
2023/04/18 04:59:18;;;;;;;12.47;11.03;;;;;;;13.16;53.76;99115.19;7006416;28;20351;-81
2023/04/18 05:02:40;;;;;;;13.60;11.50;;;;;;;12.82;54.52;99115.44;6999334;28;20246;-81
2023/04/18 05:06:03;;;;;;;14.50;11.67;;;;;;;12.52;55.39;99103.44;6985880;28;20312;-80
2023/04/18 05:09:25;;;;;;;12.00;10.70;;;;;;;13.14;54.38;99109.97;6989849;28;20707;-80
2023/04/18 05:12:46;;;;;;;12.47;11.27;;;;;;;13.76;53.00;99118.19;7007962;28;20224;-80
2023/04/18 05:16:08;;;;;;;12.73;11.27;;;;;;;13.69;53.38;99116.59;6998991;28;20285;-80
2023/04/18 05:19:29;;;;;;;13.27;11.17;;;;;;;13.11;53.58;99029.16;6981819;28;20256;-80
2023/04/18 05:22:52;;;;;;;15.87;11.77;;;;;;;13.59;54.20;99122.50;6993297;28;20238;-80
2023/04/18 05:26:14;;;;;;;13.60;12.07;;;;;;;13.59;53.99;99127.91;7007110;28;20583;-80
2023/04/18 05:29:35;;;;;;;15.60;12.10;;;;;;;13.56;54.18;99122.06;6988700;28;20693;-80
2023/04/18 05:32:57;;;;;;;13.27;11.30;;;;;;;13.68;52.58;99128.50;6991403;28;20356;-80
2023/04/18 05:36:18;;;;;;;14.80;12.07;;;;;;;13.84;52.91;99126.09;6995939;28;20287;-80
2023/04/18 05:39:41;;;;;;;12.03;10.73;;;;;;;14.02;51.92;99117.19;7017158;28;20271;-80
2023/04/18 05:43:03;;;;;;;13.03;11.23;;;;;;;13.72;52.70;99111.56;7009992;28;20325;-81
2023/04/18 05:46:24;;;;;;;14.17;11.53;;;;;;;13.21;53.32;99089.13;7012168;28;20666;-79
2023/04/18 05:49:46;;;;;;;15.00;11.53;;;;;;;14.04;52.24;99143.03;6998349;28;20737;-81
2023/04/18 05:53:07;;;;;;;14.77;11.83;;;;;;;13.71;52.98;99144.28;7004395;28;20222;-81
2023/04/18 05:56:30;;;;;;;14.93;12.63;;;;;;;13.97;52.65;99144.13;6981152;28;20340;-80
2023/04/18 05:59:52;;;;;;;14.00;12.07;;;;;;;14.06;52.07;99126.56;6986983;28;20187;-80
2023/04/18 06:03:14;;;;;;;14.23;11.77;;;;;;;13.89;52.21;99145.25;6977700;28;20230;-81
2023/04/18 06:06:35;;;;;;;13.20;11.43;;;;;;;14.17;51.77;99139.41;6988413;28;20213;-81
2023/04/18 06:09:57;;;;;;;15.43;11.83;;;;;;;14.30;51.14;99134.78;7004667;28;20328;-80
2023/04/18 06:13:23;;;;;;;15.13;11.80;;;;;;;13.90;52.31;99137.94;7016422;28;20695;-81
2023/04/18 06:16:45;;;;;;;15.27;11.60;;;;;;;13.56;52.76;99128.31;7002113;28;20601;-83
2023/04/18 06:20:09;;;;;;;13.67;11.30;;;;;;;13.88;52.50;99150.88;6980011;28;20200;-81
2023/04/18 06:23:31;;;;;;;13.77;11.67;;;;;;;13.72;52.02;99122.41;6982295;28;20337;-81
2023/04/18 06:26:53;;;;;;;14.70;11.80;;;;;;;14.11;51.97;99157.38;6996178;28;20197;-81
2023/04/18 06:30:20;;;;;;;14.03;11.57;;;;;;;13.77;52.37;99127.16;6978907;28;20566;-80
2023/04/18 06:33:42;;;;;;;15.23;11.97;;;;;;;13.31;54.44;99150.94;6988146;28;20222;-82
2023/04/18 06:37:03;;;;;;;14.13;11.90;;;;;;;12.54;55.54;99136.50;6978733;28;20655;-81
2023/04/18 06:40:25;;;;;;;13.33;11.60;;;;;;;13.55;53.40;99150.19;6977785;28;20226;-82
2023/04/18 06:43:47;;;;;;;14.83;11.23;;;;;;;12.81;55.35;99143.56;7001400;28;20232;-82
2023/04/18 06:47:10;;;;;;;12.50;11.20;;;;;;;12.80;55.69;99164.38;7010094;28;20241;-82
2023/04/18 06:50:31;;;;;;;14.63;11.30;;;;;;;13.30;54.81;99155.53;6983264;28;20206;-82
2023/04/18 06:53:53;;;;;;;12.00;10.67;;;;;;;13.58;53.56;99134.34;6979013;28;20362;-82
2023/04/18 06:57:15;;;;;;;13.97;11.07;;;;;;;14.03;52.56;99154.94;6979538;28;20233;-82
2023/04/18 07:00:36;;;;;;;15.33;12.13;;;;;;;14.12;52.15;99163.66;6984014;28;20202;-81
2023/04/18 07:03:59;;;;;;;13.30;11.37;;;;;;;14.68;51.25;99165.31;6999777;28;20355;-82
2023/04/18 07:07:21;;;;;;;13.90;11.63;;;;;;;13.58;53.02;99166.03;7006346;28;20225;-83
2023/04/18 07:10:42;;;;;;;13.80;11.57;;;;;;;14.09;53.21;99145.94;6988911;28;20728;-80
2023/04/18 07:14:04;;;;;;;12.60;11.30;;;;;;;14.56;51.47;99172.53;6976137;28;20785;-83
2023/04/18 07:17:25;;;;;;;13.17;11.50;;;;;;;14.38;51.77;99163.47;6976231;28;20248;-82
2023/04/18 07:20:48;;;;;;;14.20;11.03;;;;;;;14.16;52.16;99175.72;6975992;28;20249;-81
2023/04/18 07:24:10;;;;;;;13.07;11.40;;;;;;;13.72;53.67;99168.47;6975264;28;20272;-80
2023/04/18 07:27:34;;;;;;;13.60;12.03;;;;;;;13.57;53.96;99175.22;6976048;28;20300;-81
2023/04/18 07:30:55;;;;;;;13.13;11.73;;;;;;;13.73;53.94;99180.97;6976259;28;20206;-82
2023/04/18 07:34:17;;;;;;;15.33;12.00;;;;;;;14.27;53.25;99172.34;6975675;28;20743;-80
2023/04/18 07:37:40;;;;;;;14.10;11.10;;;;;;;14.60;51.61;99175.63;6976029;28;20203;-81
2023/04/18 07:41:02;;;;;;;14.13;12.10;;;;;;;14.87;50.61;99158.88;6977353;28;20353;-82
2023/04/18 07:44:24;;;;;;;14.90;12.43;;;;;;;15.24;50.58;99155.16;6985415;28;20241;-84
2023/04/18 07:47:45;;;;;;;13.00;11.03;;;;;;;15.76;49.39;99162.66;7003204;28;20209;-81
2023/04/18 07:51:07;;;;;;;14.00;12.20;;;;;;;15.05;50.08;99163.50;6979275;28;20290;-81
2023/04/18 07:54:30;;;;;;;14.63;12.50;;;;;;;15.50;49.71;99168.44;6981964;28;20309;-81
2023/04/18 07:57:51;;;;;;;13.27;11.80;;;;;;;14.83;50.34;99170.41;7009192;28;20245;-81
2023/04/18 08:01:14;;;;;;;14.87;12.83;;;;;;;14.71;51.35;99172.19;6994373;28;20349;-80
2023/04/18 08:04:35;;;;;;;13.20;11.43;;;;;;;15.06;51.11;99165.16;6981859;28;20223;-80
2023/04/18 08:07:57;;;;;;;14.50;12.67;;;;;;;13.39;53.43;99123.63;6980803;28;20219;-83
2023/04/18 08:11:19;;;;;;;14.87;12.13;;;;;;;14.22;52.86;99159.44;7000046;28;20282;-81
2023/04/18 08:14:41;;;;;;;13.53;11.90;;;;;;;14.83;51.52;99163.09;7008091;28;20828;-80
2023/04/18 08:18:03;;;;;;;14.27;11.83;;;;;;;15.37;49.16;99170.47;7005654;28;20804;-82
2023/04/18 08:21:25;;;;;;;14.27;12.03;;;;;;;15.44;50.70;99176.66;7009055;28;20226;-81
2023/04/18 08:24:47;;;;;;;14.50;12.03;;;;;;;16.52;46.79;99169.09;7007434;28;20227;-81
2023/04/18 08:28:10;;;;;;;14.03;11.80;;;;;;;16.09;48.79;99162.19;7008124;28;20213;-79
2023/04/18 08:31:31;;;;;;;15.00;12.07;;;;;;;16.12;48.44;99162.59;7007605;28;20207;-82
2023/04/18 08:34:52;;;;;;;16.00;11.53;;;;;;;16.23;48.91;99172.66;6993673;28;20445;-79
2023/04/18 08:38:16;;;;;;;13.13;11.77;;;;;;;16.86;47.32;99159.31;7001382;28;20291;-80
2023/04/18 08:41:42;;;;;;;12.80;11.33;;;;;;;17.08;46.19;99166.66;7006803;28;20224;-80
2023/04/18 08:45:06;;;;;;;13.50;12.10;;;;;;;17.03;46.56;99173.88;7007297;28;20713;-80
2023/04/18 08:48:28;;;;;;;12.83;11.53;;;;;;;17.11;45.57;99190.69;7000002;28;20297;-79
2023/04/18 08:51:51;;;;;;;13.63;11.37;;;;;;;15.56;49.63;99181.13;7000689;28;20802;-79
2023/04/18 08:55:13;;;;;;;12.13;10.93;;;;;;;15.78;48.60;99179.59;6996828;28;20232;-78
2023/04/18 08:58:34;;;;;;;12.90;11.23;;;;;;;15.94;49.18;99189.00;7006299;28;20205;-79
2023/04/18 09:02:00;;;;;;;13.90;12.13;;;;;;;16.22;48.16;99197.41;7004819;28;20281;-79
2023/04/18 09:05:23;;;;;;;13.87;12.40;;;;;;;15.10;49.53;99178.06;6996046;28;20236;-79
2023/04/18 09:08:56;;;;;;;14.20;12.00;;;;;;;15.79;48.79;99199.44;6987147;28;20254;-79
2023/04/18 09:12:21;;;;;;;15.27;12.13;;;;;;;14.88;51.21;99206.72;6997082;28;20212;-79
2023/04/18 09:15:54;;;;;;;14.30;12.80;;;;;;;15.30;50.72;99197.72;6978747;28;20546;-79
2023/04/18 09:19:17;;;;;;;14.13;12.27;;;;;;;14.83;50.76;99202.97;7001966;28;20192;-78
2023/04/18 09:22:46;;;;;;;15.17;11.93;;;;;;;15.00;50.53;99195.94;7005838;28;20238;-78
2023/04/18 09:26:08;;;;;;;13.97;12.47;;;;;;;15.08;50.35;99174.75;7001295;28;20206;-78
2023/04/18 09:29:45;;;;;;;13.20;11.43;;;;;;;16.61;47.81;99183.19;6979844;28;20195;-78
2023/04/18 09:33:08;;;;;;;13.07;11.10;;;;;;;16.98;46.88;99195.56;6978702;28;20624;-79
2023/04/18 09:36:33;;;;;;;12.83;11.53;;;;;;;16.23;48.94;99191.69;6985925;28;20569;-79
2023/04/18 09:39:55;;;;;;;12.53;11.23;;;;;;;16.91;46.95;99208.44;7006135;28;20595;-78
2023/04/18 09:43:20;;;;;;;11.60;10.40;;;;;;;16.64;47.32;99189.00;6985873;28;20319;-80
2023/04/18 09:46:41;;;;;;;12.90;11.13;;;;;;;16.33;47.92;99189.25;6980353;28;20200;-79
2023/04/18 09:50:04;;;;;;;13.10;11.70;;;;;;;15.82;48.71;99199.00;7005235;28;20228;-80
2023/04/18 09:53:27;;;;;;;13.00;11.07;;;;;;;15.73;48.70;99195.75;7005828;28;20377;-79
2023/04/18 09:56:52;;;;;;;13.07;11.77;;;;;;;16.05;48.09;99145.50;7006652;28;20230;-80
2023/04/18 10:00:19;;;;;;;12.93;11.00;;;;;;;16.49;47.36;99179.63;7006899;28;20422;-83
2023/04/18 10:03:45;;;;;;;11.90;10.60;;;;;;;16.78;48.22;99190.44;6999347;28;20645;-83
2023/04/18 10:07:07;;;;;;;11.60;10.40;;;;;;;17.17;45.45;99187.00;6982878;28;20239;-79
2023/04/18 10:10:30;;;;;;;11.80;10.50;;;;;;;17.10;46.42;99178.13;6978375;28;20322;-85
2023/04/18 10:13:55;;;;;;;12.17;10.53;;;;;;;16.64;47.98;99183.56;6975264;28;20309;-84
2023/04/18 10:17:17;;;;;;;10.93;9.83;;;;;;;17.19;45.39;99181.34;6978473;28;20558;-81
2023/04/18 10:20:41;;;;;;;45.47;23.40;;;;;;;17.69;46.33;99156.00;6978204;28;20210;-83
2023/04/18 10:24:02;;;;;;;12.70;9.97;;;;;;;18.65;44.08;99177.78;6977278;28;20713;-79
2023/04/18 10:28:00;;;;;;;9.77;8.77;;;;;;;17.04;45.86;99178.28;6977613;28;20712;-79
2023/04/18 10:31:24;;;;;;;10.17;9.17;;;;;;;17.20;45.17;99164.75;6977408;28;20217;-79
2023/04/18 10:34:46;;;;;;;9.73;8.57;;;;;;;17.02;46.03;99183.94;6976945;28;20260;-83
2023/04/18 10:38:16;;;;;;;9.60;8.47;;;;;;;16.40;48.28;99088.50;6981302;28;20677;-82
2023/04/18 10:41:48;;;;;;;11.10;9.03;;;;;;;17.88;44.50;99170.31;6996609;28;20262;-85
2023/04/18 10:45:19;;;;;;;9.53;7.77;;;;;;;17.76;46.44;99150.44;7006556;28;20229;-81
2023/04/18 10:48:42;;;;;;;8.20;7.33;;;;;;;18.76;42.65;99168.69;7003694;28;20217;-84
2023/04/18 10:52:04;;;;;;;8.80;7.90;;;;;;;18.52;43.90;99164.44;7005105;28;20285;-78
2023/04/18 10:55:28;;;;;;;7.90;7.10;;;;;;;17.79;45.13;99136.28;7005744;28;20222;-80
2023/04/18 10:58:51;;;;;;;8.30;7.50;;;;;;;18.31;44.14;99159.66;6987378;28;20281;-79
2023/04/18 11:02:25;;;;;;;9.27;7.37;;;;;;;18.89;43.81;99154.66;6977079;28;20317;-80
2023/04/18 11:05:48;;;;;;;9.13;7.20;;;;;;;16.98;45.64;99127.47;6991779;28;20194;-80
2023/04/18 11:09:10;;;;;;;8.27;7.47;;;;;;;17.94;44.57;99126.53;7007186;28;20212;-80
2023/04/18 11:12:33;;;;;;;7.60;6.80;;;;;;;18.11;44.55;99141.00;7005523;28;20209;-80
2023/04/18 11:15:54;;;;;;;8.33;7.50;;;;;;;16.59;48.01;99137.16;7006034;28;20202;-80
2023/04/18 11:19:20;;;;;;;7.23;6.53;;;;;;;17.32;45.96;99140.19;7005777;28;20200;-80
2023/04/18 11:22:48;;;;;;;7.53;6.80;;;;;;;16.63;48.44;99138.34;7005607;28;20283;-80
2023/04/18 11:26:11;;;;;;;7.47;6.70;;;;;;;18.30;45.17;99141.63;7005469;28;20318;-80
2023/04/18 11:29:33;;;;;;;7.43;6.67;;;;;;;18.47;44.21;99140.63;6981434;28;20206;-80
2023/04/18 11:32:54;;;;;;;7.60;6.83;;;;;;;18.78;43.73;99131.84;6995967;28;20232;-80
2023/04/18 11:36:16;;;;;;;7.27;6.57;;;;;;;18.87;43.08;99133.06;7007336;28;20234;-80
2023/04/18 11:39:42;;;;;;;6.67;6.07;;;;;;;18.69;43.04;99137.97;6995188;28;20212;-79
2023/04/18 11:43:06;;;;;;;6.90;6.20;;;;;;;18.15;43.51;99144.91;6995933;28;20228;-79
2023/04/18 11:46:37;;;;;;;6.70;5.57;;;;;;;18.66;43.42;99131.09;7003845;28;20418;-79
2023/04/18 11:50:00;;;;;;;7.80;7.00;;;;;;;17.48;44.52;99144.94;6988144;28;20363;-82
2023/04/18 11:53:36;;;;;;;7.77;6.57;;;;;;;17.96;44.82;99118.06;6975025;28;20253;-80
2023/04/18 11:56:59;;;;;;;7.83;6.33;;;;;;;18.40;43.56;99129.00;6977607;28;20919;-80
2023/04/18 12:00:33;;;;;;;8.70;6.40;;;;;;;18.46;43.39;99146.31;6975661;28;20214;-80
2023/04/18 12:04:01;;;;;;;7.10;6.40;;;;;;;18.36;42.85;99132.50;6993003;28;21081;-80
2023/04/18 12:07:41;;;;;;;7.17;6.10;;;;;;;18.32;44.02;99150.44;6997850;28;20261;-79
2023/04/18 12:11:03;;;;;;;6.80;6.20;;;;;;;18.33;43.46;99122.06;7003449;28;20197;-81
2023/04/18 12:14:26;;;;;;;7.07;5.83;;;;;;;18.42;43.28;99132.34;7002529;28;20256;-84
2023/04/18 12:17:48;;;;;;;7.33;6.40;;;;;;;17.79;44.40;99153.50;7002264;28;20301;-80
2023/04/18 12:21:09;;;;;;;7.53;6.50;;;;;;;18.53;43.90;99149.72;7002308;28;20206;-79
2023/04/18 12:24:31;;;;;;;6.40;5.77;;;;;;;17.27;44.76;99119.13;7001420;28;20303;-80
2023/04/18 12:27:55;;;;;;;6.30;5.70;;;;;;;17.68;44.75;99137.19;7000352;28;20206;-79
2023/04/18 12:31:18;;;;;;;8.00;5.57;;;;;;;18.49;43.46;99129.44;7002731;28;20353;-79
2023/04/18 12:34:39;;;;;;;6.80;6.10;;;;;;;19.04;42.43;99130.31;7002059;28;20307;-79
2023/04/18 12:38:02;;;;;;;6.50;5.90;;;;;;;19.63;41.55;99124.84;7004424;28;20689;-79
2023/04/18 12:41:24;;;;;;;6.50;5.60;;;;;;;19.94;40.38;99132.31;7004331;28;20646;-80
2023/04/18 12:44:46;;;;;;;6.83;5.60;;;;;;;18.55;42.13;99101.13;6995631;28;20751;-79
2023/04/18 12:48:09;;;;;;;6.00;5.40;;;;;;;18.65;42.87;99132.19;7006660;28;20195;-79
2023/04/18 12:51:30;;;;;;;5.77;5.23;;;;;;;19.63;40.87;99113.09;7006188;28;20205;-80
2023/04/18 12:54:52;;;;;;;5.60;5.10;;;;;;;19.39;40.13;99101.56;7004332;28;20225;-79
2023/04/18 12:58:17;;;;;;;5.40;4.90;;;;;;;19.54;39.28;99114.59;7006390;28;20209;-79
2023/04/18 13:01:38;;;;;;;5.03;4.53;;;;;;;19.12;40.31;99113.47;6994302;28;20214;-80
2023/04/18 13:05:01;;;;;;;5.27;4.80;;;;;;;18.52;41.81;99139.88;7001810;28;20339;-80
2023/04/18 13:08:23;;;;;;;4.80;4.40;;;;;;;18.27;42.58;99123.03;6993806;28;20322;-79
2023/04/18 13:11:44;;;;;;;4.87;4.37;;;;;;;18.87;40.91;99140.44;6997024;28;20289;-80
2023/04/18 13:15:07;;;;;;;5.73;4.50;;;;;;;19.21;40.62;99122.94;7006478;28;20248;-80
2023/04/18 13:18:28;;;;;;;5.57;4.30;;;;;;;18.57;42.53;99120.84;6998091;28;20198;-79
2023/04/18 13:21:52;;;;;;;5.87;4.80;;;;;;;18.99;41.77;99119.31;6989444;28;20259;-79
2023/04/18 13:25:13;;;;;;;5.17;4.67;;;;;;;17.39;44.00;99130.84;6986687;28;20239;-79
2023/04/18 13:28:35;;;;;;;4.93;4.53;;;;;;;18.56;41.56;99132.81;6979302;28;20198;-79
2023/04/18 13:31:56;;;;;;;5.63;4.90;;;;;;;17.97;42.97;99119.72;6984458;28;20194;-78
2023/04/18 13:35:18;;;;;;;5.87;4.80;;;;;;;18.46;41.86;99138.94;6988033;28;20245;-78
2023/04/18 13:38:41;;;;;;;5.10;4.67;;;;;;;18.84;41.24;99130.00;7006117;28;20226;-79
2023/04/18 13:42:03;;;;;;;4.77;4.37;;;;;;;18.55;41.29;99134.75;7002204;28;20239;-79
2023/04/18 13:45:24;;;;;;;7.67;4.00;;;;;;;19.45;40.40;99116.16;7003826;28;20705;-79
2023/04/18 13:48:46;;;;;;;5.47;4.80;;;;;;;19.21;40.04;99123.75;6992781;28;20683;-80
2023/04/18 13:52:07;;;;;;;5.90;5.40;;;;;;;18.47;41.05;99134.31;6994823;28;20659;-79
2023/04/18 13:55:30;;;;;;;4.80;4.30;;;;;;;18.88;41.64;99134.69;7006349;28;20221;-80
2023/04/18 13:58:52;;;;;;;5.20;4.70;;;;;;;18.90;40.18;99123.53;7006867;28;20243;-80
2023/04/18 14:02:13;;;;;;;5.37;4.87;;;;;;;18.47;41.62;99132.44;7005964;28;20293;-79
2023/04/18 14:05:35;;;;;;;5.80;5.10;;;;;;;18.49;41.20;99140.34;7005688;28;20234;-80
2023/04/18 14:08:58;;;;;;;5.80;5.20;;;;;;;18.58;40.93;99144.34;7005824;28;20583;-80
2023/04/18 14:12:21;;;;;;;6.97;5.60;;;;;;;18.90;41.20;99140.75;7005058;28;20206;-80
2023/04/18 14:15:42;;;;;;;5.27;4.77;;;;;;;19.72;39.96;99123.31;7004425;28;20685;-80
2023/04/18 14:19:04;;;;;;;5.13;4.63;;;;;;;19.17;40.26;99119.81;7005049;28;20202;-80
2023/04/18 14:22:25;;;;;;;5.27;4.77;;;;;;;19.09;40.50;99139.41;7003994;28;20269;-80
2023/04/18 14:25:47;;;;;;;6.10;5.50;;;;;;;17.37;43.94;99135.69;7003967;28;20264;-79
2023/04/18 14:29:10;;;;;;;4.80;4.40;;;;;;;18.40;41.80;99134.47;6997080;28;20203;-80
2023/04/18 14:32:32;;;;;;;4.93;4.53;;;;;;;19.20;39.25;99123.97;6976076;28;20324;-80
2023/04/18 14:35:53;;;;;;;5.37;4.87;;;;;;;18.62;41.65;99126.38;6987393;28;20680;-79
2023/04/18 14:39:15;;;;;;;5.60;5.10;;;;;;;18.16;41.82;99129.38;6977278;28;20203;-80
2023/04/18 14:42:37;;;;;;;4.60;4.20;;;;;;;19.27;40.53;99128.22;6990824;28;20194;-79
2023/04/18 14:46:00;;;;;;;5.23;4.30;;;;;;;19.82;39.25;99122.63;7000746;28;20225;-80
2023/04/18 14:49:22;;;;;;;5.37;4.90;;;;;;;19.17;40.53;99122.56;6990786;28;20198;-80
2023/04/18 14:52:44;;;;;;;4.40;4.00;;;;;;;20.08;38.84;99114.44;6998492;28;20239;-80
2023/04/18 14:56:06;;;;;;;4.20;3.90;;;;;;;20.56;37.84;99125.28;7003400;28;20202;-80
2023/04/18 14:59:28;;;;;;;4.43;4.03;;;;;;;20.09;39.00;99110.63;7002418;28;20202;-79
2023/04/18 15:02:51;;;;;;;5.23;4.30;;;;;;;20.48;37.11;99089.34;7001969;28;20253;-79
2023/04/18 15:06:12;;;;;;;4.13;3.73;;;;;;;20.25;37.36;99087.78;7003290;28;20210;-78
2023/04/18 15:09:36;;;;;;;4.57;4.17;;;;;;;18.14;41.29;99128.78;7003836;28;20226;-80
2023/04/18 15:12:57;;;;;;;4.10;3.70;;;;;;;18.82;40.25;99115.78;7002374;28;20222;-80
2023/04/18 15:16:19;;;;;;;4.30;3.90;;;;;;;19.17;38.42;99105.34;7002529;28;20194;-80
2023/04/18 15:19:42;;;;;;;3.73;3.43;;;;;;;18.88;39.38;99126.50;7003632;28;20217;-78
2023/04/18 15:23:04;;;;;;;3.80;3.50;;;;;;;19.21;38.81;99122.94;7002317;28;20226;-80
2023/04/18 15:26:25;;;;;;;4.33;3.40;;;;;;;18.72;38.87;99127.38;7003071;28;20206;-80
2023/04/18 15:29:47;;;;;;;4.60;4.07;;;;;;;18.17;40.35;99131.03;7003221;28;20662;-80
2023/04/18 15:33:08;;;;;;;4.60;4.20;;;;;;;18.53;40.31;99108.75;7002020;28;20229;-80
2023/04/18 15:36:31;;;;;;;4.43;4.03;;;;;;;18.55;40.63;99120.25;7003423;28;20254;-80
2023/04/18 15:39:53;;;;;;;4.37;3.97;;;;;;;19.02;38.99;99105.97;7002249;28;20261;-79